Observation data for Hereford on 02/16/2017      Previous  Date       Current Mesonet Observations  Soil Data  Daily Summary Page  Observations in Plain Language
KHES 160600Z 24007KT 00/M03 A3009 RMK A01 T00041027  RH  080%=      5-min Rain = 0
KHES 160605Z 25007KT 00/M03 A3009 RMK A01 T00031027  RH  081%=      5-min Rain = 0
KHES 160610Z 25007KT 00/M03 A3009 RMK A01 T00021026  RH  082%=      5-min Rain = 0
KHES 160615Z 25008KT 00/M03 A3008 RMK A01 T00021026  RH  082%=      5-min Rain = 0
KHES 160620Z 25007KT 00/M03 A3008 RMK A01 T00021026  RH  082%=      5-min Rain = 0
KHES 160625Z 25007KT 00/M03 A3008 RMK A01 T00021026  RH  082%=      5-min Rain = 0
KHES 160630Z 25007KT 00/M03 A3008 RMK A01 T00021026  RH  082%=      5-min Rain = 0
KHES 160635Z 25007KT 00/M03 A3008 RMK A01 T00021025  RH  083%=      5-min Rain = 0
KHES 160640Z 24007KT 00/M03 A3008 RMK A01 T00031026  RH  082%=      5-min Rain = 0
KHES 160645Z 25007KT 00/M03 A3008 RMK A01 T00041026  RH  081%=      5-min Rain = 0
KHES 160650Z 25008KT 01/M03 A3008 RMK A01 T00051026  RH  081%=      5-min Rain = 0
KHES 160655Z 25007KT 01/M03 A3008 RMK A01 T00051025  RH  081%=      5-min Rain = 0
KHES 160700Z 25008KT 00/M03 A3008 RMK A01 T00041025  RH  081%=      5-min Rain = 0
KHES 160705Z 25008KT 00/M03 A3008 RMK A01 T00041025  RH  082%=      5-min Rain = 0
KHES 160710Z 25007KT 00/M03 A3008 RMK A01 T00041025  RH  082%=      5-min Rain = 0
KHES 160715Z 25009KT 01/M03 A3008 RMK A01 T00061025  RH  080%=      5-min Rain = 0
KHES 160720Z 25009KT 01/M03 A3008 RMK A01 T00071026  RH  079%=      5-min Rain = 0
KHES 160725Z 24009KT 01/M03 A3008 RMK A01 T00071027  RH  078%=      5-min Rain = 0
KHES 160730Z 24008KT 01/M03 A3007 RMK A01 T00061028  RH  078%=      5-min Rain = 0
KHES 160735Z 24009KT 01/M03 A3007 RMK A01 T00061031  RH  077%=      5-min Rain = 0
KHES 160740Z 24009KT 01/M03 A3007 RMK A01 T00061031  RH  076%=      5-min Rain = 0
KHES 160745Z 25008KT 00/M03 A3007 RMK A01 T00031030  RH  079%=      5-min Rain = 0
KHES 160750Z 24009KT 00/M03 A3007 RMK A01 T00031030  RH  079%=      5-min Rain = 0
KHES 160755Z 25009KT 00/M03 A3007 RMK A01 T00031031  RH  079%=      5-min Rain = 0
KHES 160800Z 25008KT 00/M03 A3007 RMK A01 T00021030  RH  079%=      5-min Rain = 0
KHES 160805Z 25008KT 00/M03 A3007 RMK A01 T00031030  RH  079%=      5-min Rain = 0
KHES 160810Z 25009KT 00/M03 A3007 RMK A01 T00031031  RH  079%=      5-min Rain = 0
KHES 160815Z 25008KT 00/M03 A3007 RMK A01 T00021031  RH  079%=      5-min Rain = 0
KHES 160820Z 24008KT 00/M03 A3007 RMK A01 T00031031  RH  078%=      5-min Rain = 0
KHES 160825Z 24008KT 00/M03 A3007 RMK A01 T00041032  RH  077%=      5-min Rain = 0
KHES 160830Z 24008KT 00/M03 A3006 RMK A01 T00031033  RH  077%=      5-min Rain = 0
KHES 160835Z 24007KT 00/M03 A3006 RMK A01 T00021032  RH  078%=      5-min Rain = 0
KHES 160840Z 24006KT 00/M03 A3006 RMK A01 T00011031  RH  079%=      5-min Rain = 0
KHES 160845Z 24007KT 00/M03 A3006 RMK A01 T00021030  RH  080%=      5-min Rain = 0
KHES 160850Z 24007KT 00/M03 A3006 RMK A01 T00031030  RH  079%=      5-min Rain = 0
KHES 160855Z 24007KT 00/M03 A3005 RMK A01 T00031030  RH  079%=      5-min Rain = 0
KHES 160900Z 24007KT 00/M03 A3005 RMK A01 T00031029  RH  080%=      5-min Rain = 0
KHES 160905Z 24008KT 00/M03 A3005 RMK A01 T00031030  RH  079%=      5-min Rain = 0
KHES 160910Z 24008KT 00/M03 A3005 RMK A01 T00041030  RH  078%=      5-min Rain = 0
KHES 160915Z 24008KT 01/M03 A3005 RMK A01 T00051030  RH  078%=      5-min Rain = 0
KHES 160920Z 25007KT 00/M03 A3005 RMK A01 T00031029  RH  080%=      5-min Rain = 0
KHES 160925Z 24008KT 00/M03 A3005 RMK A01 T00011028  RH  081%=      5-min Rain = 0
KHES 160930Z 24008KT 00/03 A3005 RMK A01 T00-00-29  RH  082%=      5-min Rain = 0
KHES 160935Z 24009KT 00/M03 A3004 RMK A01 T00011031  RH  080%=      5-min Rain = 0
KHES 160940Z 24009KT 00/M03 A3004 RMK A01 T00021033  RH  078%=      5-min Rain = 0
KHES 160945Z 24008KT 00/03 A3004 RMK A01 T00-00-32  RH  079%=      5-min Rain = 0
KHES 160950Z 24009KT 00/03 A3004 RMK A01 T00-00-33  RH  079%=      5-min Rain = 0
KHES 160955Z 24008KT 00/M03 A3004 RMK A01 T00011034  RH  078%=      5-min Rain = 0
KHES 161000Z 24008KT 00/03 A3004 RMK A01 T00000-34  RH  078%=      5-min Rain = 0
KHES 161005Z 23008KT M00/M03 A3003 RMK A01 T10011034  RH  079%=      5-min Rain = 0
KHES 161010Z 23008KT M00/M03 A3003 RMK A01 T10011034  RH  079%=      5-min Rain = 0
KHES 161015Z 23008KT M00/M03 A3003 RMK A01 T10021033  RH  080%=      5-min Rain = 0
KHES 161020Z 23008KT M00/M03 A3003 RMK A01 T10031033  RH  081%=      5-min Rain = 0
KHES 161025Z 24008KT M00/M03 A3003 RMK A01 T10021033  RH  080%=      5-min Rain = 0
KHES 161030Z 24007KT M00/M03 A3003 RMK A01 T10021033  RH  080%=      5-min Rain = 0
KHES 161035Z 24007KT M00/M03 A3003 RMK A01 T10021032  RH  080%=      5-min Rain = 0
KHES 161040Z 24008KT M00/M03 A3003 RMK A01 T10011033  RH  080%=      5-min Rain = 0
KHES 161045Z 25007KT M00/M03 A3003 RMK A01 T10021033  RH  080%=      5-min Rain = 0
KHES 161050Z 25008KT M00/M03 A3003 RMK A01 T10031032  RH  081%=      5-min Rain = 0
KHES 161055Z 25007KT M00/M03 A3003 RMK A01 T10031032  RH  081%=      5-min Rain = 0
KHES 161100Z 24008KT M00/M03 A3003 RMK A01 T10031033  RH  081%=      5-min Rain = 0
KHES 161105Z 24009KT M00/M03 A3003 RMK A01 T10011034  RH  079%=      5-min Rain = 0
KHES 161110Z 25009KT 00/04 A3003 RMK A01 T00-00-35  RH  078%=      5-min Rain = 0
KHES 161115Z 25008KT M00/M03 A3002 RMK A01 T10011034  RH  079%=      5-min Rain = 0
KHES 161120Z 24008KT M00/M03 A3002 RMK A01 T10021034  RH  080%=      5-min Rain = 0
KHES 161125Z 25008KT M00/M04 A3002 RMK A01 T10031035  RH  079%=      5-min Rain = 0
KHES 161130Z 24007KT M01/M04 A3002 RMK A01 T10051035  RH  081%=      5-min Rain = 0
KHES 161135Z 24008KT M00/M03 A3002 RMK A01 T10041034  RH  081%=      5-min Rain = 0
KHES 161140Z 25009KT M00/M03 A3002 RMK A01 T10031034  RH  080%=      5-min Rain = 0
KHES 161145Z 25009KT M01/M04 A3002 RMK A01 T10051035  RH  080%=      5-min Rain = 0
KHES 161150Z 25008KT M01/M04 A3002 RMK A01 T10051036  RH  080%=      5-min Rain = 0
KHES 161155Z 24009KT M01/M04 A3002 RMK A01 T10061037  RH  080%=      5-min Rain = 0
KHES 161200Z 25009KT M01/M04 A3002 RMK A01 T10071037  RH  080%=      5-min Rain = 0
KHES 161205Z 25009KT M01/M04 A3002 RMK A01 T10081038  RH  081%=      5-min Rain = 0
KHES 161210Z 25008KT M01/M04 A3001 RMK A01 T10081037  RH  081%=      5-min Rain = 0
KHES 161215Z 24008KT M01/M04 A3001 RMK A01 T10081036  RH  082%=      5-min Rain = 0
KHES 161220Z 24008KT M01/M04 A3001 RMK A01 T10071036  RH  081%=      5-min Rain = 0
KHES 161225Z 24009KT M01/M04 A3001 RMK A01 T10071038  RH  080%=      5-min Rain = 0
KHES 161230Z 24009KT M01/M04 A3001 RMK A01 T10071039  RH  079%=      5-min Rain = 0
KHES 161235Z 24009KT M01/M04 A3001 RMK A01 T10071039  RH  079%=      5-min Rain = 0
KHES 161240Z 24010KT M01/M04 A3001 RMK A01 T10071039  RH  080%=      5-min Rain = 0
KHES 161245Z 24010KT M01/M04 A3001 RMK A01 T10071039  RH  079%=      5-min Rain = 0
KHES 161250Z 24010KT M01/M04 A3001 RMK A01 T10071039  RH  079%=      5-min Rain = 0
KHES 161255Z 24009KT M01/M04 A3001 RMK A01 T10071039  RH  079%=      5-min Rain = 0
KHES 161300Z 24009KT M01/M04 A3001 RMK A01 T10071040  RH  078%=      5-min Rain = 0
KHES 161305Z 24009KT M01/M04 A3001 RMK A01 T10081040  RH  079%=      5-min Rain = 0
KHES 161310Z 23009KT M01/M04 A3001 RMK A01 T10081040  RH  079%=      5-min Rain = 0
KHES 161315Z 23009KT M01/M04 A3001 RMK A01 T10081041  RH  079%=      5-min Rain = 0
KHES 161320Z 23008KT M01/M04 A3001 RMK A01 T10091041  RH  079%=      5-min Rain = 0
KHES 161325Z 24008KT M01/M04 A3001 RMK A01 T10121041  RH  081%=      5-min Rain = 0
KHES 161330Z 23008KT M01/M04 A3001 RMK A01 T10131040  RH  082%=      5-min Rain = 0
KHES 161335Z 24008KT M01/M04 A3001 RMK A01 T10141040  RH  082%=      5-min Rain = 0
KHES 161340Z 24008KT M01/M04 A3001 RMK A01 T10141040  RH  083%=      5-min Rain = 0
KHES 161345Z 24008KT M01/M04 A3001 RMK A01 T10131039  RH  083%=      5-min Rain = 0
KHES 161350Z 25008KT M01/M04 A3001 RMK A01 T10111038  RH  082%=      5-min Rain = 0
KHES 161355Z 25008KT M01/M04 A3001 RMK A01 T10091038  RH  081%=      5-min Rain = 0
KHES 161400Z 25009KT M01/M04 A3001 RMK A01 T10081039  RH  080%=      5-min Rain = 0
KHES 161405Z 25008KT M01/M04 A3001 RMK A01 T10061037  RH  080%=      5-min Rain = 0
KHES 161410Z 25008KT M00/M04 A30 RMK A01 T10041036  RH  079%=      5-min Rain = 0
KHES 161415Z 24008KT M00/M04 A30 RMK A01 T10031037  RH  079%=      5-min Rain = 0
KHES 161420Z 24009KT M00/M04 A30 RMK A01 T10011036  RH  078%=      5-min Rain = 0
KHES 161425Z 25010KT 00/M04 A30 RMK A01 T00011037  RH  076%=      5-min Rain = 0
KHES 161430Z 24009KT 00/M04 A30 RMK A01 T00021035  RH  076%=      5-min Rain = 0
KHES 161435Z 24009KT 00/M04 A30 RMK A01 T00031035  RH  076%=      5-min Rain = 0
KHES 161440Z 24009KT 01/M03 A30 RMK A01 T00051034  RH  076%=      5-min Rain = 0
KHES 161445Z 25009KT 01/M03 A30 RMK A01 T00061032  RH  076%=      5-min Rain = 0
KHES 161450Z 25009KT 01/M03 A30 RMK A01 T00061031  RH  077%=      5-min Rain = 0
KHES 161455Z 25009KT 01/M03 A30 RMK A01 T00081028  RH  077%=      5-min Rain = 0
KHES 161500Z 25010KT 01/M03 A30 RMK A01 T00111026  RH  077%=      5-min Rain = 0
KHES 161505Z 25010KT 01/M02 A3001 RMK A01 T00141024  RH  076%=      5-min Rain = 0
KHES 161510Z 25010KT 02/M02 A3001 RMK A01 T00161022  RH  076%=      5-min Rain = 0
KHES 161515Z 26009KT 02/M02 A30 RMK A01 T00191019  RH  077%=      5-min Rain = 0
KHES 161520Z 26008KT 02/M02 A30 RMK A01 T00221015  RH  077%=      5-min Rain = 0
KHES 161525Z 26009KT 02/M02 A30 RMK A01 T00231016  RH  076%=      5-min Rain = 0
KHES 161530Z 26009KT 02/M02 A30 RMK A01 T00241016  RH  075%=      5-min Rain = 0
KHES 161535Z 26010KT 03/M01 A30 RMK A01 T00261014  RH  075%=      5-min Rain = 0
KHES 161540Z 26009KT 03/M01 A30 RMK A01 T00291010  RH  076%=      5-min Rain = 0
KHES 161545Z 25008KT 03/M01 A30 RMK A01 T00331007  RH  076%=      5-min Rain = 0
KHES 161550Z 25010KT 04/M01 A30 RMK A01 T00361007  RH  074%=      5-min Rain = 0
KHES 161555Z 25009KT 04/M00 A2999 RMK A01 T00391004  RH  074%=      5-min Rain = 0
KHES 161600Z 25009KT 04/M00 A2999 RMK A01 T00411003  RH  074%=      5-min Rain = 0
KHES 161605Z 25008KT 04/00 A2999 RMK A01 T004400-0  RH  074%=      5-min Rain = 0
KHES 161610Z 26007KT 05/01 A2999 RMK A01 T00500007  RH  075%=      5-min Rain = 0
KHES 161615Z 25007KT 06/01 A2999 RMK A01 T00570011  RH  074%=      5-min Rain = 0
KHES 161620Z 24007KT 06/01 A2999 RMK A01 T00620013  RH  071%=      5-min Rain = 0
KHES 161625Z 24007KT 07/02 A2999 RMK A01 T00660016  RH  071%=      5-min Rain = 0
KHES 161630Z 24008KT 07/02 A2999 RMK A01 T00690015  RH  069%=      5-min Rain = 0
KHES 161635Z 24007KT 07/02 A2999 RMK A01 T00740018  RH  068%=      5-min Rain = 0
KHES 161640Z 24009KT 08/02 A2998 RMK A01 T00810019  RH  066%=      5-min Rain = 0
KHES 161645Z 24009KT 09/02 A2998 RMK A01 T00880019  RH  063%=      5-min Rain = 0
KHES 161650Z 23010KT 10/02 A2998 RMK A01 T00950021  RH  061%=      5-min Rain = 0
KHES 161655Z 24009KT 10/03 A2998 RMK A01 T01030027  RH  060%=      5-min Rain = 0
KHES 161700Z 24010KT 10/02 A2998 RMK A01 T01040023  RH  058%=      5-min Rain = 0
KHES 161705Z 24010KT 11/03 A2998 RMK A01 T01080028  RH  059%=      5-min Rain = 0
KHES 161710Z 24011KT 11/03 A2998 RMK A01 T01120025  RH  056%=      5-min Rain = 0
KHES 161715Z 23012KT 11/02 A2997 RMK A01 T01140024  RH  055%=      5-min Rain = 0
KHES 161720Z 23011KT 12/02 A2997 RMK A01 T01150022  RH  053%=      5-min Rain = 0
KHES 161725Z 23011KT 12/02 A2997 RMK A01 T01160022  RH  053%=      5-min Rain = 0
KHES 161730Z 23011KT 12/03 A2997 RMK A01 T01180026  RH  054%=      5-min Rain = 0
KHES 161735Z 22010KT 12/03 A2997 RMK A01 T01220027  RH  053%=      5-min Rain = 0
KHES 161740Z 21012KT 12/02 A2997 RMK A01 T01240022  RH  051%=      5-min Rain = 0
KHES 161745Z 22010KT 13/03 A2997 RMK A01 T01290030  RH  052%=      5-min Rain = 0
KHES 161750Z 22013KT 13/03 A2996 RMK A01 T01300025  RH  049%=      5-min Rain = 0
KHES 161755Z 22012G17KT 13/03 A2996 RMK A01 T01310026  RH  050%=      5-min Rain = 0
KHES 161800Z 23013KT 13/03 A2996 RMK A01 T01340026  RH  049%=      5-min Rain = 0
KHES 161805Z 23012KT 14/03 A2995 RMK A01 T01380030  RH  049%=      5-min Rain = 0
KHES 161810Z 22014KT 14/02 A2995 RMK A01 T01370019  RH  045%=      5-min Rain = 0
KHES 161815Z 23013KT 14/02 A2995 RMK A01 T01390021  RH  045%=      5-min Rain = 0
KHES 161820Z 24014KT 14/02 A2994 RMK A01 T01400022  RH  046%=      5-min Rain = 0
KHES 161825Z 23012KT 14/03 A2994 RMK A01 T01430026  RH  046%=      5-min Rain = 0
KHES 161830Z 23010KT 15/03 A2994 RMK A01 T01470032  RH  047%=      5-min Rain = 0
KHES 161835Z 23010KT 15/03 A2994 RMK A01 T01460027  RH  046%=      5-min Rain = 0
KHES 161840Z 22012KT 15/03 A2994 RMK A01 T01450030  RH  047%=      5-min Rain = 0
KHES 161845Z 23010G15KT 15/03 A2994 RMK A01 T01480027  RH  045%=      5-min Rain = 0
KHES 161850Z 24010G15KT 15/03 A2994 RMK A01 T01510027  RH  044%=      5-min Rain = 0
KHES 161855Z 24010KT 15/03 A2993 RMK A01 T01510027  RH  044%=      5-min Rain = 0
KHES 161900Z 24012KT 15/03 A2993 RMK A01 T01530025  RH  043%=      5-min Rain = 0
KHES 161905Z 23011KT 15/02 A2993 RMK A01 T01510017  RH  041%=      5-min Rain = 0
KHES 161910Z 24011G16KT 15/02 A2992 RMK A01 T01530019  RH  041%=      5-min Rain = 0
KHES 161915Z 23011KT 15/02 A2992 RMK A01 T01540020  RH  041%=      5-min Rain = 0
KHES 161920Z 23011KT 16/02 A2992 RMK A01 T01580021  RH  040%=      5-min Rain = 0
KHES 161925Z 23012KT 16/02 A2992 RMK A01 T01580016  RH  039%=      5-min Rain = 0
KHES 161930Z 23012KT 16/01 A2992 RMK A01 T01590013  RH  038%=      5-min Rain = 0
KHES 161935Z 24012KT 16/02 A2992 RMK A01 T01590017  RH  039%=      5-min Rain = 0
KHES 161940Z 22012G17KT 16/01 A2991 RMK A01 T01600014  RH  038%=      5-min Rain = 0
KHES 161945Z 22011KT 16/01 A2991 RMK A01 T01600009  RH  036%=      5-min Rain = 0
KHES 161950Z 24011KT 16/01 A2991 RMK A01 T01640011  RH  036%=      5-min Rain = 0
KHES 161955Z 23012KT 16/00 A299 RMK A01 T01640001  RH  033%=      5-min Rain = 0
KHES 162000Z 23012G17KT 16/00 A299 RMK A01 T01640003  RH  034%=      5-min Rain = 0
KHES 162005Z 22012KT 17/01 A299 RMK A01 T01680005  RH  034%=      5-min Rain = 0
KHES 162010Z 22013G18KT 17/00 A299 RMK A01 T01680002  RH  033%=      5-min Rain = 0
KHES 162015Z 22011G16KT 17/00 A2989 RMK A01 T01690000  RH  032%=      5-min Rain = 0
KHES 162020Z 22011KT 17/00 A2989 RMK A01 T01710003  RH  033%=      5-min Rain = 0
KHES 162025Z 21013KT 17/00 A2989 RMK A01 T01710000  RH  032%=      5-min Rain = 0
KHES 162030Z 21013G18KT 17/00 A2989 RMK A01 T01700000  RH  032%=      5-min Rain = 0
KHES 162035Z 20012G17KT 17/00 A2989 RMK A01 T01700003  RH  033%=      5-min Rain = 0
KHES 162040Z 21013G18KT 17/00 A2989 RMK A01 T01720001  RH  032%=      5-min Rain = 0
KHES 162045Z 21013G19KT 17/M00 A2989 RMK A01 T01691004  RH  031%=      5-min Rain = 0
KHES 162050Z 21013KT 17/M00 A2988 RMK A01 T01691002  RH  032%=      5-min Rain = 0
KHES 162055Z 21012KT 17/M00 A2988 RMK A01 T01711001  RH  031%=      5-min Rain = 0
KHES 162100Z 21014G19KT 17/M01 A2988 RMK A01 T01701009  RH  030%=      5-min Rain = 0
KHES 162105Z 21013G18KT 17/M01 A2988 RMK A01 T01721007  RH  030%=      5-min Rain = 0
KHES 162110Z 21013G18KT 17/M01 A2988 RMK A01 T01721011  RH  029%=      5-min Rain = 0
KHES 162115Z 21013G19KT 17/M01 A2988 RMK A01 T01701013  RH  029%=      5-min Rain = 0
KHES 162120Z 22012G18KT 17/M01 A2988 RMK A01 T01721007  RH  030%=      5-min Rain = 0
KHES 162125Z 22013G18KT 17/M01 A2987 RMK A01 T01731012  RH  029%=      5-min Rain = 0
KHES 162130Z 22011KT 18/M00 A2987 RMK A01 T01751003  RH  030%=      5-min Rain = 0
KHES 162135Z 22011G16KT 17/M01 A2987 RMK A01 T01741008  RH  029%=      5-min Rain = 0
KHES 162140Z 22012G17KT 18/M01 A2987 RMK A01 T01751009  RH  029%=      5-min Rain = 0
KHES 162145Z 20013G18KT 17/M02 A2987 RMK A01 T01721017  RH  028%=      5-min Rain = 0
KHES 162150Z 21014G19KT 17/M02 A2987 RMK A01 T01721015  RH  028%=      5-min Rain = 0
KHES 162155Z 21013KT 17/M01 A2987 RMK A01 T01691010  RH  030%=      5-min Rain = 0
KHES 162200Z 21013KT 17/M02 A2987 RMK A01 T01671018  RH  028%=      5-min Rain = 0
KHES 162205Z 21013KT 17/M01 A2986 RMK A01 T01661013  RH  030%=      5-min Rain = 0
KHES 162210Z 21013G19KT 17/M02 A2986 RMK A01 T01691018  RH  028%=      5-min Rain = 0
KHES 162215Z 21014KT 17/M02 A2986 RMK A01 T01701018  RH  028%=      5-min Rain = 0
KHES 162220Z 22012G17KT 17/M01 A2986 RMK A01 T01711007  RH  030%=      5-min Rain = 0
KHES 162225Z 21014KT 17/M01 A2986 RMK A01 T01691010  RH  030%=      5-min Rain = 0
KHES 162230Z 21014KT 17/M01 A2986 RMK A01 T01681014  RH  029%=      5-min Rain = 0
KHES 162235Z 22015G20KT 17/M01 A2986 RMK A01 T01661014  RH  029%=      5-min Rain = 0
KHES 162240Z 21013G18KT 17/M02 A2986 RMK A01 T01661020  RH  028%=      5-min Rain = 0
KHES 162245Z 22012KT 17/M02 A2986 RMK A01 T01661019  RH  028%=      5-min Rain = 0
KHES 162250Z 22012KT 17/M02 A2986 RMK A01 T01661016  RH  029%=      5-min Rain = 0
KHES 162255Z 22013KT 16/M01 A2986 RMK A01 T01641014  RH  030%=      5-min Rain = 0
KHES 162300Z 21012KT 16/M01 A2986 RMK A01 T01641013  RH  030%=      5-min Rain = 0
KHES 162305Z 20015G21KT 16/M01 A2986 RMK A01 T01601014  RH  031%=      5-min Rain = 0
KHES 162310Z 21017KT 15/M01 A2986 RMK A01 T01541013  RH  032%=      5-min Rain = 0
KHES 162315Z 21016G21KT 15/M01 A2986 RMK A01 T01501012  RH  033%=      5-min Rain = 0
KHES 162320Z 21013G18KT 15/M01 A2986 RMK A01 T01461009  RH  035%=      5-min Rain = 0
KHES 162325Z 21013KT 14/M01 A2986 RMK A01 T01431008  RH  036%=      5-min Rain = 0
KHES 162330Z 21012KT 14/M00 A2986 RMK A01 T01381004  RH  038%=      5-min Rain = 0
KHES 162335Z 21012KT 13/M00 A2986 RMK A01 T01331003  RH  040%=      5-min Rain = 0
KHES 162340Z 21011KT 13/M00 A2986 RMK A01 T01311001  RH  041%=      5-min Rain = 0
KHES 162345Z 21010KT 13/00 A2986 RMK A01 T012900-0  RH  042%=      5-min Rain = 0
KHES 162350Z 21010KT 13/00 A2986 RMK A01 T01310001  RH  041%=      5-min Rain = 0
KHES 162355Z 21009KT 13/00 A2986 RMK A01 T01310004  RH  042%=      5-min Rain = 0
KHES 170000Z 21009KT 13/01 A2986 RMK A01 T01310005  RH  043%=      5-min Rain = 0
KHES 170005Z 20008KT 13/01 A2986 RMK A01 T01300005  RH  043%=      5-min Rain = 0
KHES 170010Z 21008KT 13/01 A2986 RMK A01 T01290006  RH  043%=      5-min Rain = 0
KHES 170015Z 20009KT 13/00 A2986 RMK A01 T01260004  RH  044%=      5-min Rain = 0
KHES 170020Z 20009KT 12/00 A2985 RMK A01 T01230004  RH  045%=      5-min Rain = 0
KHES 170025Z 21009KT 12/01 A2985 RMK A01 T01210005  RH  045%=      5-min Rain = 0
KHES 170030Z 21009KT 12/01 A2985 RMK A01 T01180007  RH  047%=      5-min Rain = 0
KHES 170035Z 21009KT 11/01 A2985 RMK A01 T01140007  RH  048%=      5-min Rain = 0
KHES 170040Z 21009KT 11/00 A2985 RMK A01 T01120003  RH  048%=      5-min Rain = 0
KHES 170045Z 21009KT 11/00 A2985 RMK A01 T01090002  RH  048%=      5-min Rain = 0
KHES 170050Z 21009KT 11/00 A2985 RMK A01 T01070001  RH  049%=      5-min Rain = 0
KHES 170055Z 21008KT 10/00 A2985 RMK A01 T01030001  RH  049%=      5-min Rain = 0
KHES 170100Z 21008KT 10/00 A2985 RMK A01 T01010001  RH  050%=      5-min Rain = 0
KHES 170105Z 21008KT 10/00 A2985 RMK A01 T00990000  RH  051%=      5-min Rain = 0
KHES 170110Z 21008KT 10/00 A2985 RMK A01 T00970000  RH  052%=      5-min Rain = 0
KHES 170115Z 21008KT 09/00 A2985 RMK A01 T00930001  RH  053%=      5-min Rain = 0
KHES 170120Z 22008KT 09/00 A2985 RMK A01 T00920001  RH  054%=      5-min Rain = 0
KHES 170125Z 22007KT 09/00 A2985 RMK A01 T00870002  RH  056%=      5-min Rain = 0
KHES 170130Z 22008KT 08/00 A2985 RMK A01 T00830003  RH  058%=      5-min Rain = 0
KHES 170135Z 22008KT 08/00 A2985 RMK A01 T00820001  RH  058%=      5-min Rain = 0
KHES 170140Z 22008KT 08/M00 A2984 RMK A01 T00821001  RH  057%=      5-min Rain = 0
KHES 170145Z 22008KT 08/00 A2984 RMK A01 T008000-0  RH  057%=      5-min Rain = 0
KHES 170150Z 22008KT 08/00 A2984 RMK A01 T008000-0  RH  058%=      5-min Rain = 0
KHES 170155Z 22008KT 08/M00 A2984 RMK A01 T00791002  RH  057%=      5-min Rain = 0
KHES 170200Z 22008KT 08/M00 A2984 RMK A01 T00771004  RH  057%=      5-min Rain = 0
KHES 170205Z 22007KT 07/M01 A2984 RMK A01 T00741005  RH  058%=      5-min Rain = 0
KHES 170210Z 22007KT 07/M01 A2984 RMK A01 T00721006  RH  058%=      5-min Rain = 0
KHES 170215Z 21007KT 07/M01 A2984 RMK A01 T00701007  RH  059%=      5-min Rain = 0
KHES 170220Z 21007KT 07/M01 A2984 RMK A01 T00701009  RH  058%=      5-min Rain = 0
KHES 170225Z 21008KT 07/M01 A2984 RMK A01 T00691010  RH  057%=      5-min Rain = 0
KHES 170230Z 21008KT 07/M01 A2984 RMK A01 T00701012  RH  056%=      5-min Rain = 0
KHES 170235Z 21007KT 07/M01 A2984 RMK A01 T00681013  RH  056%=      5-min Rain = 0
KHES 170240Z 21008KT 07/M01 A2984 RMK A01 T00671014  RH  057%=      5-min Rain = 0
KHES 170245Z 21008KT 07/M02 A2984 RMK A01 T00681015  RH  056%=      5-min Rain = 0
KHES 170250Z 21007KT 07/M02 A2984 RMK A01 T00661015  RH  057%=      5-min Rain = 0
KHES 170255Z 21006KT 06/M01 A2984 RMK A01 T00621014  RH  059%=      5-min Rain = 0
KHES 170300Z 21007KT 06/M01 A2984 RMK A01 T00581014  RH  060%=      5-min Rain = 0
KHES 170305Z 21007KT 06/M01 A2984 RMK A01 T00591014  RH  060%=      5-min Rain = 0
KHES 170310Z 20006KT 06/M02 A2984 RMK A01 T00561016  RH  060%=      5-min Rain = 0
KHES 170315Z 19007KT 05/M02 A2984 RMK A01 T00521019  RH  061%=      5-min Rain = 0
KHES 170320Z 20009KT 06/M02 A2984 RMK A01 T00591018  RH  058%=      5-min Rain = 0
KHES 170325Z 21009KT 07/M02 A2984 RMK A01 T00651018  RH  056%=      5-min Rain = 0
KHES 170330Z 21008KT 06/M02 A2984 RMK A01 T00601018  RH  058%=      5-min Rain = 0
KHES 170335Z 21009KT 06/M02 A2984 RMK A01 T00601021  RH  057%=      5-min Rain = 0
KHES 170340Z 21010KT 06/M02 A2984 RMK A01 T00631021  RH  055%=      5-min Rain = 0
KHES 170345Z 21010KT 06/M02 A2984 RMK A01 T00641022  RH  055%=      5-min Rain = 0
KHES 170350Z 22010KT 06/M02 A2984 RMK A01 T00631021  RH  055%=      5-min Rain = 0
KHES 170355Z 22009KT 06/M02 A2984 RMK A01 T00601019  RH  057%=      5-min Rain = 0
KHES 170400Z 22008KT 06/M02 A2984 RMK A01 T00581018  RH  058%=      5-min Rain = 0
KHES 170405Z 21008KT 06/M02 A2984 RMK A01 T00551017  RH  060%=      5-min Rain = 0
KHES 170410Z 21008KT 05/M02 A2984 RMK A01 T00531017  RH  061%=      5-min Rain = 0
KHES 170415Z 22008KT 05/M02 A2984 RMK A01 T00511017  RH  062%=      5-min Rain = 0
KHES 170420Z 22008KT 05/M02 A2984 RMK A01 T00491017  RH  063%=      5-min Rain = 0
KHES 170425Z 22009KT 05/M02 A2984 RMK A01 T00471017  RH  064%=      5-min Rain = 0
KHES 170430Z 21009KT 05/M02 A2984 RMK A01 T00461017  RH  064%=      5-min Rain = 0
KHES 170435Z 21009KT 05/M02 A2984 RMK A01 T00461018  RH  064%=      5-min Rain = 0
KHES 170440Z 21009KT 04/M02 A2984 RMK A01 T00441018  RH  064%=      5-min Rain = 0
KHES 170445Z 21009KT 04/M02 A2984 RMK A01 T00431019  RH  064%=      5-min Rain = 0
KHES 170450Z 21009KT 04/M02 A2983 RMK A01 T00431019  RH  065%=      5-min Rain = 0
KHES 170455Z 21009KT 04/M02 A2983 RMK A01 T00421019  RH  065%=      5-min Rain = 0
KHES 170500Z 21010KT 04/M02 A2983 RMK A01 T00421019  RH  065%=      5-min Rain = 0
KHES 170505Z 21009KT 04/M02 A2983 RMK A01 T00411019  RH  065%=      5-min Rain = 0
KHES 170510Z 22009KT 04/M02 A2983 RMK A01 T00401019  RH  066%=      5-min Rain = 0
KHES 170515Z 22009KT 04/M02 A2982 RMK A01 T00391019  RH  066%=      5-min Rain = 0
KHES 170520Z 22009KT 04/M02 A2982 RMK A01 T00381019  RH  067%=      5-min Rain = 0
KHES 170525Z 21008KT 04/M02 A2982 RMK A01 T00361019  RH  068%=      5-min Rain = 0
KHES 170530Z 21008KT 04/M02 A2982 RMK A01 T00351018  RH  069%=      5-min Rain = 0
KHES 170535Z 21009KT 04/M02 A2982 RMK A01 T00351018  RH  068%=      5-min Rain = 0
KHES 170540Z 22009KT 04/M02 A2982 RMK A01 T00381019  RH  067%=      5-min Rain = 0
KHES 170545Z 22009KT 04/M02 A2981 RMK A01 T00391019  RH  067%=      5-min Rain = 0
KHES 170550Z 22009KT 04/M02 A2981 RMK A01 T00391019  RH  066%=      5-min Rain = 0
KHES 170555Z 21009KT 04/M02 A2981 RMK A01 T00401019  RH  066%=      5-min Rain = 0

Page generated in 0.0172 seconds.